sensor_id;sensor_type;location;lat;lon;timestamp;P1;durP1;ratioP1;P2;durP2;ratioP2
77222;SDS011;66218;48.928;9.140;2023-03-23T00:01:24;2.03;;;0.30;;
77222;SDS011;66218;48.928;9.140;2023-03-23T00:03:52;1.00;;;0.40;;
77222;SDS011;66218;48.928;9.140;2023-03-23T00:06:18;1.00;;;0.40;;
77222;SDS011;66218;48.928;9.140;2023-03-23T00:08:45;0.98;;;0.28;;
77222;SDS011;66218;48.928;9.140;2023-03-23T00:11:11;1.88;;;0.40;;
77222;SDS011;66218;48.928;9.140;2023-03-23T00:13:40;1.15;;;0.70;;
77222;SDS011;66218;48.928;9.140;2023-03-23T00:16:05;1.70;;;0.50;;
77222;SDS011;66218;48.928;9.140;2023-03-23T00:18:31;0.73;;;0.20;;
77222;SDS011;66218;48.928;9.140;2023-03-23T00:20:56;0.57;;;0.30;;
77222;SDS011;66218;48.928;9.140;2023-03-23T00:23:22;3.72;;;0.63;;
77222;SDS011;66218;48.928;9.140;2023-03-23T00:25:49;0.75;;;0.43;;
77222;SDS011;66218;48.928;9.140;2023-03-23T00:28:15;1.75;;;0.30;;
77222;SDS011;66218;48.928;9.140;2023-03-23T00:30:40;1.98;;;0.50;;
77222;SDS011;66218;48.928;9.140;2023-03-23T00:33:07;1.55;;;0.40;;
77222;SDS011;66218;48.928;9.140;2023-03-23T00:35:32;1.60;;;0.40;;
77222;SDS011;66218;48.928;9.140;2023-03-23T00:37:57;1.17;;;0.43;;
77222;SDS011;66218;48.928;9.140;2023-03-23T00:40:23;2.35;;;0.30;;
77222;SDS011;66218;48.928;9.140;2023-03-23T00:42:49;0.50;;;0.40;;
77222;SDS011;66218;48.928;9.140;2023-03-23T00:45:14;1.50;;;0.70;;
77222;SDS011;66218;48.928;9.140;2023-03-23T00:47:40;2.85;;;0.95;;
77222;SDS011;66218;48.928;9.140;2023-03-23T00:52:31;2.03;;;0.30;;
77222;SDS011;66218;48.928;9.140;2023-03-23T00:54:56;1.17;;;0.30;;
77222;SDS011;66218;48.928;9.140;2023-03-23T00:57:22;1.13;;;0.73;;
77222;SDS011;66218;48.928;9.140;2023-03-23T00:59:49;0.88;;;0.38;;
77222;SDS011;66218;48.928;9.140;2023-03-23T01:02:14;1.77;;;0.50;;
77222;SDS011;66218;48.928;9.140;2023-03-23T01:04:41;0.70;;;0.40;;
77222;SDS011;66218;48.928;9.140;2023-03-23T01:07:09;1.77;;;0.30;;
77222;SDS011;66218;48.928;9.140;2023-03-23T01:09:37;0.68;;;0.40;;
77222;SDS011;66218;48.928;9.140;2023-03-23T01:12:04;2.03;;;0.70;;
77222;SDS011;66218;48.928;9.140;2023-03-23T01:14:30;0.77;;;0.35;;
77222;SDS011;66218;48.928;9.140;2023-03-23T01:16:55;0.77;;;0.43;;
77222;SDS011;66218;48.928;9.140;2023-03-23T01:19:21;3.33;;;0.52;;
77222;SDS011;66218;48.928;9.140;2023-03-23T01:21:47;0.75;;;0.38;;
77222;SDS011;66218;48.928;9.140;2023-03-23T01:24:12;1.67;;;0.60;;
77222;SDS011;66218;48.928;9.140;2023-03-23T01:26:37;1.90;;;0.40;;
77222;SDS011;66218;48.928;9.140;2023-03-23T01:29:02;1.30;;;0.60;;
77222;SDS011;66218;48.928;9.140;2023-03-23T01:31:28;1.27;;;0.50;;
77222;SDS011;66218;48.928;9.140;2023-03-23T01:33:53;2.40;;;0.35;;
77222;SDS011;66218;48.928;9.140;2023-03-23T01:36:21;0.80;;;0.40;;
77222;SDS011;66218;48.928;9.140;2023-03-23T01:38:47;2.28;;;0.70;;
77222;SDS011;66218;48.928;9.140;2023-03-23T01:41:12;1.48;;;0.50;;
77222;SDS011;66218;48.928;9.140;2023-03-23T01:44:01;0.77;;;0.30;;
77222;SDS011;66218;48.928;9.140;2023-03-23T01:46:31;1.33;;;0.38;;
77222;SDS011;66218;48.928;9.140;2023-03-23T01:48:56;2.35;;;0.47;;
77222;SDS011;66218;48.928;9.140;2023-03-23T01:51:23;1.30;;;0.60;;
77222;SDS011;66218;48.928;9.140;2023-03-23T01:56:15;0.40;;;0.30;;
77222;SDS011;66218;48.928;9.140;2023-03-23T01:58:41;2.47;;;0.80;;
77222;SDS011;66218;48.928;9.140;2023-03-23T02:01:11;1.75;;;0.60;;
77222;SDS011;66218;48.928;9.140;2023-03-23T02:03:37;4.28;;;0.70;;
77222;SDS011;66218;48.928;9.140;2023-03-23T02:06:04;1.02;;;0.30;;
77222;SDS011;66218;48.928;9.140;2023-03-23T02:08:29;1.00;;;0.50;;
77222;SDS011;66218;48.928;9.140;2023-03-23T02:10:57;1.65;;;0.80;;
77222;SDS011;66218;48.928;9.140;2023-03-23T02:13:22;0.30;;;0.30;;
77222;SDS011;66218;48.928;9.140;2023-03-23T02:16:01;1.37;;;0.60;;
77222;SDS011;66218;48.928;9.140;2023-03-23T02:21:05;2.35;;;1.08;;
77222;SDS011;66218;48.928;9.140;2023-03-23T02:23:45;1.27;;;0.65;;
77222;SDS011;66218;48.928;9.140;2023-03-23T02:33:44;0.75;;;0.50;;
77222;SDS011;66218;48.928;9.140;2023-03-23T02:36:17;1.92;;;1.05;;
77222;SDS011;66218;48.928;9.140;2023-03-23T02:41:09;2.10;;;0.40;;
77222;SDS011;66218;48.928;9.140;2023-03-23T02:43:39;0.93;;;0.63;;
77222;SDS011;66218;48.928;9.140;2023-03-23T02:46:05;1.05;;;0.40;;
77222;SDS011;66218;48.928;9.140;2023-03-23T02:48:32;0.63;;;0.40;;
77222;SDS011;66218;48.928;9.140;2023-03-23T02:50:58;2.33;;;0.45;;
77222;SDS011;66218;48.928;9.140;2023-03-23T02:53:25;0.68;;;0.40;;
77222;SDS011;66218;48.928;9.140;2023-03-23T02:55:51;1.33;;;0.85;;
77222;SDS011;66218;48.928;9.140;2023-03-23T02:58:18;0.30;;;0.30;;
77222;SDS011;66218;48.928;9.140;2023-03-23T03:00:44;1.40;;;0.60;;
77222;SDS011;66218;48.928;9.140;2023-03-23T03:03:13;1.25;;;0.73;;
77222;SDS011;66218;48.928;9.140;2023-03-23T03:10:52;0.82;;;0.50;;
77222;SDS011;66218;48.928;9.140;2023-03-23T03:15:49;0.82;;;0.50;;
77222;SDS011;66218;48.928;9.140;2023-03-23T03:18:19;1.52;;;0.60;;
77222;SDS011;66218;48.928;9.140;2023-03-23T03:20:54;1.30;;;0.77;;
77222;SDS011;66218;48.928;9.140;2023-03-23T03:23:21;2.30;;;0.70;;
77222;SDS011;66218;48.928;9.140;2023-03-23T03:25:47;2.13;;;0.88;;
77222;SDS011;66218;48.928;9.140;2023-03-23T03:28:17;1.50;;;0.75;;
77222;SDS011;66218;48.928;9.140;2023-03-23T03:30:46;1.00;;;0.45;;
77222;SDS011;66218;48.928;9.140;2023-03-23T03:33:12;1.58;;;0.68;;
77222;SDS011;66218;48.928;9.140;2023-03-23T03:35:38;1.48;;;0.47;;
77222;SDS011;66218;48.928;9.140;2023-03-23T03:38:06;2.42;;;0.70;;
77222;SDS011;66218;48.928;9.140;2023-03-23T03:40:33;1.48;;;0.60;;
77222;SDS011;66218;48.928;9.140;2023-03-23T03:42:58;3.67;;;0.95;;
77222;SDS011;66218;48.928;9.140;2023-03-23T03:45:23;1.70;;;0.60;;
77222;SDS011;66218;48.928;9.140;2023-03-23T03:47:48;1.63;;;0.70;;
77222;SDS011;66218;48.928;9.140;2023-03-23T03:50:13;0.87;;;0.57;;
77222;SDS011;66218;48.928;9.140;2023-03-23T03:52:39;1.57;;;0.70;;
77222;SDS011;66218;48.928;9.140;2023-03-23T03:55:05;2.33;;;0.73;;
77222;SDS011;66218;48.928;9.140;2023-03-23T03:57:31;0.65;;;0.40;;
77222;SDS011;66218;48.928;9.140;2023-03-23T03:59:57;1.70;;;0.40;;
77222;SDS011;66218;48.928;9.140;2023-03-23T04:02:22;1.03;;;0.50;;
77222;SDS011;66218;48.928;9.140;2023-03-23T04:04:48;1.53;;;0.60;;
77222;SDS011;66218;48.928;9.140;2023-03-23T04:07:13;1.45;;;0.52;;
77222;SDS011;66218;48.928;9.140;2023-03-23T04:09:39;1.05;;;0.40;;
77222;SDS011;66218;48.928;9.140;2023-03-23T04:12:04;0.80;;;0.40;;
77222;SDS011;66218;48.928;9.140;2023-03-23T04:14:30;1.25;;;0.50;;
77222;SDS011;66218;48.928;9.140;2023-03-23T04:16:55;1.57;;;0.80;;
77222;SDS011;66218;48.928;9.140;2023-03-23T04:19:21;1.17;;;0.40;;
77222;SDS011;66218;48.928;9.140;2023-03-23T04:21:47;2.30;;;0.70;;
77222;SDS011;66218;48.928;9.140;2023-03-23T04:24:14;1.40;;;0.70;;
77222;SDS011;66218;48.928;9.140;2023-03-23T04:26:39;1.45;;;0.80;;
77222;SDS011;66218;48.928;9.140;2023-03-23T04:29:05;1.38;;;0.80;;
77222;SDS011;66218;48.928;9.140;2023-03-23T04:31:30;1.35;;;0.77;;
77222;SDS011;66218;48.928;9.140;2023-03-23T04:33:56;1.95;;;0.70;;
77222;SDS011;66218;48.928;9.140;2023-03-23T04:36:22;1.65;;;0.70;;
77222;SDS011;66218;48.928;9.140;2023-03-23T04:38:48;0.80;;;0.50;;
77222;SDS011;66218;48.928;9.140;2023-03-23T04:41:15;2.42;;;0.52;;
77222;SDS011;66218;48.928;9.140;2023-03-23T04:43:40;1.40;;;0.55;;
77222;SDS011;66218;48.928;9.140;2023-03-23T04:46:06;2.08;;;0.70;;
77222;SDS011;66218;48.928;9.140;2023-03-23T04:48:33;1.70;;;0.70;;
77222;SDS011;66218;48.928;9.140;2023-03-23T04:51:00;1.00;;;0.50;;
77222;SDS011;66218;48.928;9.140;2023-03-23T04:53:27;0.82;;;0.50;;
77222;SDS011;66218;48.928;9.140;2023-03-23T04:55:52;1.07;;;0.53;;
77222;SDS011;66218;48.928;9.140;2023-03-23T04:58:18;2.13;;;0.50;;
77222;SDS011;66218;48.928;9.140;2023-03-23T05:00:44;0.50;;;0.40;;
77222;SDS011;66218;48.928;9.140;2023-03-23T05:03:14;1.00;;;0.50;;
77222;SDS011;66218;48.928;9.140;2023-03-23T05:05:41;0.88;;;0.40;;
77222;SDS011;66218;48.928;9.140;2023-03-23T05:08:06;1.50;;;0.83;;
77222;SDS011;66218;48.928;9.140;2023-03-23T05:10:31;2.40;;;0.40;;
77222;SDS011;66218;48.928;9.140;2023-03-23T05:12:57;3.03;;;0.65;;
77222;SDS011;66218;48.928;9.140;2023-03-23T05:15:22;1.00;;;0.53;;
77222;SDS011;66218;48.928;9.140;2023-03-23T05:17:47;1.87;;;0.80;;
77222;SDS011;66218;48.928;9.140;2023-03-23T05:20:15;2.10;;;0.82;;
77222;SDS011;66218;48.928;9.140;2023-03-23T05:22:43;3.92;;;0.50;;
77222;SDS011;66218;48.928;9.140;2023-03-23T05:25:09;1.13;;;0.85;;
77222;SDS011;66218;48.928;9.140;2023-03-23T05:27:35;0.75;;;0.50;;
77222;SDS011;66218;48.928;9.140;2023-03-23T05:30:00;2.83;;;0.93;;
77222;SDS011;66218;48.928;9.140;2023-03-23T05:32:26;2.67;;;0.73;;
77222;SDS011;66218;48.928;9.140;2023-03-23T05:34:57;2.13;;;0.68;;
77222;SDS011;66218;48.928;9.140;2023-03-23T05:37:23;1.55;;;0.50;;
77222;SDS011;66218;48.928;9.140;2023-03-23T05:39:48;1.23;;;0.50;;
77222;SDS011;66218;48.928;9.140;2023-03-23T05:42:18;0.98;;;0.50;;
77222;SDS011;66218;48.928;9.140;2023-03-23T05:44:43;0.80;;;0.47;;
77222;SDS011;66218;48.928;9.140;2023-03-23T05:47:10;1.08;;;0.50;;
77222;SDS011;66218;48.928;9.140;2023-03-23T05:49:35;0.55;;;0.43;;
77222;SDS011;66218;48.928;9.140;2023-03-23T05:52:01;1.35;;;0.73;;
77222;SDS011;66218;48.928;9.140;2023-03-23T05:54:26;4.13;;;0.90;;
77222;SDS011;66218;48.928;9.140;2023-03-23T05:56:51;2.77;;;0.90;;
77222;SDS011;66218;48.928;9.140;2023-03-23T05:59:17;1.08;;;0.60;;
77222;SDS011;66218;48.928;9.140;2023-03-23T06:01:42;1.60;;;0.95;;
77222;SDS011;66218;48.928;9.140;2023-03-23T06:04:08;2.13;;;0.80;;
77222;SDS011;66218;48.928;9.140;2023-03-23T06:06:34;1.65;;;0.70;;
77222;SDS011;66218;48.928;9.140;2023-03-23T06:09:00;1.02;;;0.45;;
77222;SDS011;66218;48.928;9.140;2023-03-23T06:11:25;0.93;;;0.63;;
77222;SDS011;66218;48.928;9.140;2023-03-23T06:13:51;1.13;;;0.60;;
77222;SDS011;66218;48.928;9.140;2023-03-23T06:16:17;1.10;;;0.70;;
77222;SDS011;66218;48.928;9.140;2023-03-23T06:18:42;2.27;;;0.80;;
77222;SDS011;66218;48.928;9.140;2023-03-23T06:21:08;1.65;;;0.65;;
77222;SDS011;66218;48.928;9.140;2023-03-23T06:23:33;0.90;;;0.60;;
77222;SDS011;66218;48.928;9.140;2023-03-23T06:26:01;0.80;;;0.55;;
77222;SDS011;66218;48.928;9.140;2023-03-23T06:28:27;1.20;;;0.60;;
77222;SDS011;66218;48.928;9.140;2023-03-23T06:30:53;1.77;;;0.68;;
77222;SDS011;66218;48.928;9.140;2023-03-23T06:33:18;3.40;;;0.80;;
77222;SDS011;66218;48.928;9.140;2023-03-23T06:35:43;2.38;;;1.33;;
77222;SDS011;66218;48.928;9.140;2023-03-23T06:38:09;2.50;;;1.00;;
77222;SDS011;66218;48.928;9.140;2023-03-23T06:40:34;0.60;;;0.60;;
77222;SDS011;66218;48.928;9.140;2023-03-23T06:43:00;0.80;;;0.50;;
77222;SDS011;66218;48.928;9.140;2023-03-23T06:45:26;2.60;;;0.63;;
77222;SDS011;66218;48.928;9.140;2023-03-23T06:47:51;0.97;;;0.73;;
77222;SDS011;66218;48.928;9.140;2023-03-23T06:50:17;0.85;;;0.55;;
77222;SDS011;66218;48.928;9.140;2023-03-23T06:52:46;1.15;;;0.75;;
77222;SDS011;66218;48.928;9.140;2023-03-23T06:55:11;1.30;;;0.77;;
77222;SDS011;66218;48.928;9.140;2023-03-23T06:57:37;2.08;;;0.63;;
77222;SDS011;66218;48.928;9.140;2023-03-23T07:00:02;0.83;;;0.50;;
77222;SDS011;66218;48.928;9.140;2023-03-23T07:02:30;1.42;;;0.73;;
77222;SDS011;66218;48.928;9.140;2023-03-23T07:04:55;2.67;;;0.83;;
77222;SDS011;66218;48.928;9.140;2023-03-23T07:07:20;2.72;;;0.90;;
77222;SDS011;66218;48.928;9.140;2023-03-23T07:09:46;1.92;;;0.82;;
77222;SDS011;66218;48.928;9.140;2023-03-23T07:12:11;2.37;;;0.80;;
77222;SDS011;66218;48.928;9.140;2023-03-23T07:14:36;0.57;;;0.45;;
77222;SDS011;66218;48.928;9.140;2023-03-23T07:17:02;4.07;;;0.90;;
77222;SDS011;66218;48.928;9.140;2023-03-23T07:19:27;3.63;;;0.57;;
77222;SDS011;66218;48.928;9.140;2023-03-23T07:21:53;2.73;;;1.00;;
77222;SDS011;66218;48.928;9.140;2023-03-23T07:24:18;4.20;;;0.60;;
77222;SDS011;66218;48.928;9.140;2023-03-23T07:26:44;3.53;;;1.20;;
77222;SDS011;66218;48.928;9.140;2023-03-23T07:29:09;2.88;;;1.05;;
77222;SDS011;66218;48.928;9.140;2023-03-23T07:31:35;2.50;;;0.90;;
77222;SDS011;66218;48.928;9.140;2023-03-23T07:34:00;1.65;;;0.70;;
77222;SDS011;66218;48.928;9.140;2023-03-23T07:36:26;3.30;;;1.00;;
77222;SDS011;66218;48.928;9.140;2023-03-23T07:38:51;2.33;;;1.00;;
77222;SDS011;66218;48.928;9.140;2023-03-23T07:41:16;1.40;;;0.80;;
77222;SDS011;66218;48.928;9.140;2023-03-23T07:43:42;1.02;;;0.60;;
77222;SDS011;66218;48.928;9.140;2023-03-23T07:46:07;1.65;;;1.00;;
77222;SDS011;66218;48.928;9.140;2023-03-23T07:48:32;7.53;;;0.80;;
77222;SDS011;66218;48.928;9.140;2023-03-23T07:50:58;0.83;;;0.63;;
77222;SDS011;66218;48.928;9.140;2023-03-23T07:53:23;1.33;;;0.60;;
77222;SDS011;66218;48.928;9.140;2023-03-23T07:55:49;1.70;;;0.70;;
77222;SDS011;66218;48.928;9.140;2023-03-23T07:58:14;2.03;;;0.70;;
77222;SDS011;66218;48.928;9.140;2023-03-23T08:00:44;1.60;;;0.70;;
77222;SDS011;66218;48.928;9.140;2023-03-23T08:03:09;1.77;;;0.73;;
77222;SDS011;66218;48.928;9.140;2023-03-23T08:05:35;6.13;;;1.05;;
77222;SDS011;66218;48.928;9.140;2023-03-23T08:08:00;2.13;;;0.60;;
77222;SDS011;66218;48.928;9.140;2023-03-23T08:10:26;0.88;;;0.60;;
77222;SDS011;66218;48.928;9.140;2023-03-23T08:12:52;0.82;;;0.57;;
77222;SDS011;66218;48.928;9.140;2023-03-23T08:17:44;1.20;;;0.60;;
77222;SDS011;66218;48.928;9.140;2023-03-23T08:20:10;1.23;;;0.60;;
77222;SDS011;66218;48.928;9.140;2023-03-23T08:22:38;1.00;;;0.50;;
77222;SDS011;66218;48.928;9.140;2023-03-23T08:25:05;1.10;;;0.50;;
77222;SDS011;66218;48.928;9.140;2023-03-23T08:29:56;2.35;;;0.73;;
77222;SDS011;66218;48.928;9.140;2023-03-23T08:32:21;1.20;;;0.70;;
77222;SDS011;66218;48.928;9.140;2023-03-23T08:34:47;1.00;;;0.55;;
77222;SDS011;66218;48.928;9.140;2023-03-23T08:37:13;1.70;;;0.63;;
77222;SDS011;66218;48.928;9.140;2023-03-23T08:39:39;1.50;;;0.90;;
77222;SDS011;66218;48.928;9.140;2023-03-23T08:42:04;1.30;;;0.60;;
77222;SDS011;66218;48.928;9.140;2023-03-23T08:44:29;1.33;;;0.50;;
77222;SDS011;66218;48.928;9.140;2023-03-23T08:46:55;2.83;;;0.70;;
77222;SDS011;66218;48.928;9.140;2023-03-23T08:49:22;1.80;;;0.90;;
77222;SDS011;66218;48.928;9.140;2023-03-23T08:51:47;1.67;;;0.90;;
77222;SDS011;66218;48.928;9.140;2023-03-23T08:54:13;3.00;;;0.68;;
77222;SDS011;66218;48.928;9.140;2023-03-23T08:56:38;2.15;;;0.68;;
77222;SDS011;66218;48.928;9.140;2023-03-23T08:59:03;2.47;;;0.80;;
77222;SDS011;66218;48.928;9.140;2023-03-23T09:01:29;1.27;;;0.73;;
77222;SDS011;66218;48.928;9.140;2023-03-23T09:03:54;2.60;;;0.80;;
77222;SDS011;66218;48.928;9.140;2023-03-23T09:06:19;1.83;;;0.90;;
77222;SDS011;66218;48.928;9.140;2023-03-23T09:08:45;2.33;;;0.68;;
77222;SDS011;66218;48.928;9.140;2023-03-23T09:11:10;2.63;;;0.60;;
77222;SDS011;66218;48.928;9.140;2023-03-23T09:13:36;1.98;;;0.73;;
77222;SDS011;66218;48.928;9.140;2023-03-23T09:16:02;2.47;;;1.05;;
77222;SDS011;66218;48.928;9.140;2023-03-23T09:18:28;1.35;;;0.60;;
77222;SDS011;66218;48.928;9.140;2023-03-23T09:20:54;2.23;;;0.93;;
77222;SDS011;66218;48.928;9.140;2023-03-23T09:23:19;1.45;;;0.90;;
77222;SDS011;66218;48.928;9.140;2023-03-23T09:25:45;0.85;;;0.60;;
77222;SDS011;66218;48.928;9.140;2023-03-23T09:28:11;1.25;;;0.60;;
77222;SDS011;66218;48.928;9.140;2023-03-23T09:30:37;2.20;;;0.70;;
77222;SDS011;66218;48.928;9.140;2023-03-23T09:33:04;1.95;;;0.57;;
77222;SDS011;66218;48.928;9.140;2023-03-23T09:35:30;2.75;;;0.57;;
77222;SDS011;66218;48.928;9.140;2023-03-23T09:37:56;2.72;;;0.43;;
77222;SDS011;66218;48.928;9.140;2023-03-23T09:40:22;1.13;;;0.75;;
77222;SDS011;66218;48.928;9.140;2023-03-23T09:45:23;1.33;;;0.43;;
77222;SDS011;66218;48.928;9.140;2023-03-23T09:50:15;2.23;;;0.63;;
77222;SDS011;66218;48.928;9.140;2023-03-23T09:52:47;1.33;;;0.50;;
77222;SDS011;66218;48.928;9.140;2023-03-23T09:55:16;2.47;;;0.45;;
77222;SDS011;66218;48.928;9.140;2023-03-23T10:00:30;0.43;;;0.40;;
77222;SDS011;66218;48.928;9.140;2023-03-23T10:03:06;1.25;;;0.60;;
77222;SDS011;66218;48.928;9.140;2023-03-23T10:05:36;0.32;;;0.32;;
77222;SDS011;66218;48.928;9.140;2023-03-23T10:08:05;1.38;;;0.50;;
77222;SDS011;66218;48.928;9.140;2023-03-23T10:10:36;1.00;;;0.50;;
77222;SDS011;66218;48.928;9.140;2023-03-23T10:13:09;2.47;;;0.63;;
77222;SDS011;66218;48.928;9.140;2023-03-23T10:15:41;1.25;;;0.55;;
77222;SDS011;66218;48.928;9.140;2023-03-23T10:18:12;1.88;;;0.70;;
77222;SDS011;66218;48.928;9.140;2023-03-23T10:28:17;1.23;;;0.60;;
77222;SDS011;66218;48.928;9.140;2023-03-23T10:30:45;2.30;;;0.60;;
77222;SDS011;66218;48.928;9.140;2023-03-23T10:35:42;2.35;;;0.47;;
77222;SDS011;66218;48.928;9.140;2023-03-23T10:38:13;1.92;;;0.55;;
77222;SDS011;66218;48.928;9.140;2023-03-23T10:40:50;3.00;;;0.80;;
77222;SDS011;66218;48.928;9.140;2023-03-23T10:43:18;0.98;;;0.43;;
77222;SDS011;66218;48.928;9.140;2023-03-23T10:45:44;0.68;;;0.52;;
77222;SDS011;66218;48.928;9.140;2023-03-23T10:48:12;1.95;;;0.45;;
77222;SDS011;66218;48.928;9.140;2023-03-23T10:50:38;3.05;;;0.63;;
77222;SDS011;66218;48.928;9.140;2023-03-23T10:53:17;0.28;;;0.22;;
77222;SDS011;66218;48.928;9.140;2023-03-23T10:55:43;3.03;;;0.80;;
77222;SDS011;66218;48.928;9.140;2023-03-23T10:58:10;1.15;;;0.40;;
77222;SDS011;66218;48.928;9.140;2023-03-23T11:00:40;1.05;;;0.52;;
77222;SDS011;66218;48.928;9.140;2023-03-23T11:05:40;0.60;;;0.50;;
77222;SDS011;66218;48.928;9.140;2023-03-23T11:08:12;0.60;;;0.50;;
77222;SDS011;66218;48.928;9.140;2023-03-23T11:10:48;1.38;;;0.45;;
77222;SDS011;66218;48.928;9.140;2023-03-23T11:13:18;2.13;;;0.60;;
77222;SDS011;66218;48.928;9.140;2023-03-23T11:15:45;2.38;;;0.80;;
77222;SDS011;66218;48.928;9.140;2023-03-23T11:18:12;3.28;;;0.63;;
77222;SDS011;66218;48.928;9.140;2023-03-23T11:20:39;0.95;;;0.45;;
77222;SDS011;66218;48.928;9.140;2023-03-23T11:25:50;1.55;;;0.47;;
77222;SDS011;66218;48.928;9.140;2023-03-23T11:28:16;1.05;;;0.77;;
77222;SDS011;66218;48.928;9.140;2023-03-23T11:30:41;3.78;;;1.50;;
77222;SDS011;66218;48.928;9.140;2023-03-23T11:33:07;1.25;;;0.57;;
77222;SDS011;66218;48.928;9.140;2023-03-23T11:35:33;2.33;;;0.98;;
77222;SDS011;66218;48.928;9.140;2023-03-23T11:37:58;1.35;;;0.68;;
77222;SDS011;66218;48.928;9.140;2023-03-23T11:40:27;1.50;;;0.70;;
77222;SDS011;66218;48.928;9.140;2023-03-23T11:42:59;1.88;;;0.70;;
77222;SDS011;66218;48.928;9.140;2023-03-23T11:47:55;2.65;;;0.60;;
77222;SDS011;66218;48.928;9.140;2023-03-23T11:50:32;1.42;;;0.80;;
77222;SDS011;66218;48.928;9.140;2023-03-23T11:58:15;0.93;;;0.50;;
77222;SDS011;66218;48.928;9.140;2023-03-23T12:00:43;1.30;;;0.75;;
77222;SDS011;66218;48.928;9.140;2023-03-23T12:13:24;3.17;;;1.00;;
77222;SDS011;66218;48.928;9.140;2023-03-23T12:21:18;3.15;;;0.65;;
77222;SDS011;66218;48.928;9.140;2023-03-23T12:26:37;2.67;;;0.60;;
77222;SDS011;66218;48.928;9.140;2023-03-23T12:42:05;0.98;;;0.60;;
77222;SDS011;66218;48.928;9.140;2023-03-23T12:44:39;0.85;;;0.77;;
77222;SDS011;66218;48.928;9.140;2023-03-23T12:49:58;1.00;;;0.52;;
77222;SDS011;66218;48.928;9.140;2023-03-23T12:52:32;3.00;;;1.08;;
77222;SDS011;66218;48.928;9.140;2023-03-23T12:55:03;1.05;;;0.60;;
77222;SDS011;66218;48.928;9.140;2023-03-23T12:57:34;2.33;;;1.00;;
77222;SDS011;66218;48.928;9.140;2023-03-23T13:00:21;3.53;;;0.90;;
77222;SDS011;66218;48.928;9.140;2023-03-23T13:02:55;1.25;;;0.68;;
77222;SDS011;66218;48.928;9.140;2023-03-23T13:07:49;2.50;;;0.93;;
77222;SDS011;66218;48.928;9.140;2023-03-23T13:10:21;1.40;;;0.80;;
77222;SDS011;66218;48.928;9.140;2023-03-23T13:12:47;1.70;;;0.80;;
77222;SDS011;66218;48.928;9.140;2023-03-23T13:25:14;2.35;;;1.23;;
77222;SDS011;66218;48.928;9.140;2023-03-23T13:27:42;4.20;;;1.10;;
77222;SDS011;66218;48.928;9.140;2023-03-23T13:30:17;5.60;;;1.00;;
77222;SDS011;66218;48.928;9.140;2023-03-23T13:32:45;3.30;;;0.85;;
77222;SDS011;66218;48.928;9.140;2023-03-23T13:35:12;2.37;;;0.83;;
77222;SDS011;66218;48.928;9.140;2023-03-23T13:37:41;3.90;;;1.13;;
77222;SDS011;66218;48.928;9.140;2023-03-23T13:40:28;1.55;;;0.70;;
77222;SDS011;66218;48.928;9.140;2023-03-23T13:42:56;2.78;;;0.95;;
77222;SDS011;66218;48.928;9.140;2023-03-23T13:50:56;2.20;;;0.82;;
77222;SDS011;66218;48.928;9.140;2023-03-23T13:53:26;2.05;;;0.98;;
77222;SDS011;66218;48.928;9.140;2023-03-23T13:56:04;3.90;;;0.90;;
77222;SDS011;66218;48.928;9.140;2023-03-23T13:58:30;2.72;;;0.98;;
77222;SDS011;66218;48.928;9.140;2023-03-23T14:03:33;0.98;;;0.75;;
77222;SDS011;66218;48.928;9.140;2023-03-23T14:10:54;2.60;;;1.13;;
77222;SDS011;66218;48.928;9.140;2023-03-23T14:15:54;3.58;;;1.05;;
77222;SDS011;66218;48.928;9.140;2023-03-23T14:18:21;4.63;;;0.85;;
77222;SDS011;66218;48.928;9.140;2023-03-23T14:20:47;3.33;;;1.33;;
77222;SDS011;66218;48.928;9.140;2023-03-23T14:23:16;2.53;;;0.95;;
77222;SDS011;66218;48.928;9.140;2023-03-23T14:25:42;3.70;;;1.33;;
77222;SDS011;66218;48.928;9.140;2023-03-23T14:28:17;2.90;;;1.30;;
77222;SDS011;66218;48.928;9.140;2023-03-23T14:30:42;2.40;;;0.85;;
77222;SDS011;66218;48.928;9.140;2023-03-23T14:33:09;2.73;;;1.30;;
77222;SDS011;66218;48.928;9.140;2023-03-23T14:35:37;1.65;;;0.90;;
77222;SDS011;66218;48.928;9.140;2023-03-23T14:38:05;2.03;;;0.85;;
77222;SDS011;66218;48.928;9.140;2023-03-23T14:40:36;2.92;;;0.80;;
77222;SDS011;66218;48.928;9.140;2023-03-23T14:43:01;2.17;;;0.93;;
77222;SDS011;66218;48.928;9.140;2023-03-23T14:45:27;3.63;;;1.08;;
77222;SDS011;66218;48.928;9.140;2023-03-23T14:47:59;1.97;;;0.77;;
77222;SDS011;66218;48.928;9.140;2023-03-23T14:50:26;2.13;;;0.80;;
77222;SDS011;66218;48.928;9.140;2023-03-23T14:52:55;1.15;;;0.75;;
77222;SDS011;66218;48.928;9.140;2023-03-23T14:55:21;2.78;;;0.80;;
77222;SDS011;66218;48.928;9.140;2023-03-23T14:57:47;3.92;;;0.90;;
77222;SDS011;66218;48.928;9.140;2023-03-23T15:00:21;2.75;;;1.17;;
77222;SDS011;66218;48.928;9.140;2023-03-23T15:02:47;3.33;;;1.30;;
77222;SDS011;66218;48.928;9.140;2023-03-23T15:05:15;2.10;;;1.00;;
77222;SDS011;66218;48.928;9.140;2023-03-23T15:07:42;1.92;;;1.08;;
77222;SDS011;66218;48.928;9.140;2023-03-23T15:10:08;2.50;;;1.15;;
77222;SDS011;66218;48.928;9.140;2023-03-23T15:12:36;2.65;;;0.90;;
77222;SDS011;66218;48.928;9.140;2023-03-23T15:15:03;1.67;;;0.90;;
77222;SDS011;66218;48.928;9.140;2023-03-23T15:17:30;2.25;;;1.10;;
77222;SDS011;66218;48.928;9.140;2023-03-23T15:19:56;2.08;;;1.10;;
77222;SDS011;66218;48.928;9.140;2023-03-23T15:22:24;3.78;;;1.35;;
77222;SDS011;66218;48.928;9.140;2023-03-23T15:24:51;2.50;;;0.90;;
77222;SDS011;66218;48.928;9.140;2023-03-23T15:32:24;2.80;;;1.20;;
77222;SDS011;66218;48.928;9.140;2023-03-23T15:34:49;1.67;;;1.08;;
77222;SDS011;66218;48.928;9.140;2023-03-23T15:37:19;2.23;;;0.97;;
77222;SDS011;66218;48.928;9.140;2023-03-23T15:39:45;2.67;;;1.17;;
77222;SDS011;66218;48.928;9.140;2023-03-23T15:42:20;2.85;;;1.23;;
77222;SDS011;66218;48.928;9.140;2023-03-23T15:44:53;2.33;;;1.17;;
77222;SDS011;66218;48.928;9.140;2023-03-23T15:47:19;2.95;;;1.30;;
77222;SDS011;66218;48.928;9.140;2023-03-23T15:49:45;3.20;;;1.17;;
77222;SDS011;66218;48.928;9.140;2023-03-23T15:52:11;3.67;;;1.48;;
77222;SDS011;66218;48.928;9.140;2023-03-23T15:54:37;2.90;;;1.45;;
77222;SDS011;66218;48.928;9.140;2023-03-23T15:57:02;1.88;;;0.98;;
77222;SDS011;66218;48.928;9.140;2023-03-23T15:59:28;2.33;;;0.98;;
77222;SDS011;66218;48.928;9.140;2023-03-23T16:01:53;4.00;;;1.67;;
77222;SDS011;66218;48.928;9.140;2023-03-23T16:04:19;2.05;;;1.15;;
77222;SDS011;66218;48.928;9.140;2023-03-23T16:06:44;6.53;;;1.80;;
77222;SDS011;66218;48.928;9.140;2023-03-23T16:09:17;2.27;;;1.27;;
77222;SDS011;66218;48.928;9.140;2023-03-23T16:11:42;1.77;;;0.98;;
77222;SDS011;66218;48.928;9.140;2023-03-23T16:14:08;3.10;;;1.37;;
77222;SDS011;66218;48.928;9.140;2023-03-23T16:16:35;2.90;;;1.30;;
77222;SDS011;66218;48.928;9.140;2023-03-23T16:19:01;4.20;;;1.20;;
77222;SDS011;66218;48.928;9.140;2023-03-23T16:21:26;3.63;;;1.38;;
77222;SDS011;66218;48.928;9.140;2023-03-23T16:23:52;5.90;;;1.50;;
77222;SDS011;66218;48.928;9.140;2023-03-23T16:26:18;3.83;;;1.55;;
77222;SDS011;66218;48.928;9.140;2023-03-23T16:28:43;2.27;;;1.10;;
77222;SDS011;66218;48.928;9.140;2023-03-23T16:31:08;1.77;;;0.75;;
77222;SDS011;66218;48.928;9.140;2023-03-23T16:33:34;4.38;;;1.17;;
77222;SDS011;66218;48.928;9.140;2023-03-23T16:35:59;1.33;;;1.02;;
77222;SDS011;66218;48.928;9.140;2023-03-23T16:38:25;3.55;;;0.93;;
77222;SDS011;66218;48.928;9.140;2023-03-23T16:40:50;3.63;;;1.30;;
77222;SDS011;66218;48.928;9.140;2023-03-23T16:43:15;2.45;;;1.30;;
77222;SDS011;66218;48.928;9.140;2023-03-23T16:45:41;3.58;;;1.30;;
77222;SDS011;66218;48.928;9.140;2023-03-23T16:48:07;2.78;;;1.33;;
77222;SDS011;66218;48.928;9.140;2023-03-23T16:50:33;2.90;;;1.33;;
77222;SDS011;66218;48.928;9.140;2023-03-23T16:52:59;4.18;;;1.40;;
77222;SDS011;66218;48.928;9.140;2023-03-23T16:55:24;5.10;;;1.60;;